Terminal Aerodrome Forecast
Issued by NWS

Home | Current Version | Previous Version | Text Only | Print | Product List | Glossary On
Versions: 1 2 3 4 5 6 7 8 9 10 11 12 13 14
850
FTUS41 KCAR 011720
TAFPQI
TAF
KPQI 011720Z 0118/0218 VRB04KT P6SM SCT100 BKN250
     FM020500 17006KT P6SM -RA OVC040
     FM021500 14007KT 5SM -RA BR OVC025=

USA.gov is the U.S. government's official web portal to all federal, state and local government web resources and services.